Harristown, Illinois
Current Conditions -  °F | °C
As of 8:54 PM on Monday 20 Oct 2014 (Local Time) from KDEC Reporting Station
Clear Clear  
Wind Chill: 56°   Ceiling: Unl
Heat Index: 56°   Visibility: 10mi
Dew Point: 44°   Wind: 3mph
Humidity: 64%   Direction: 290°WNW
Pressure: 29.98"   Gusts: NA
Location:  39.85°N, 89.08°W
Report Text: KDEC 210154Z 29003KT 10SM CLR 13/07 A2998 RMK AO2 SLP153 T01330067
Loading
Personal Weather Stations






























Interactive Weather Map
Tropical Storm Tracking
New forecast layout! Learn more

10-Day Weather Forecast

Advertisements
Track Severe Weather on mobile